createdAt,value
2023-11-23T00:03:23.550Z,21.77
2023-11-23T00:08:10.779Z,20.83
2023-11-23T00:13:00.479Z,22.52
2023-11-23T00:17:47.821Z,21.33
2023-11-23T00:22:35.010Z,21.20
2023-11-23T00:27:22.191Z,21.40
2023-11-23T00:32:12.207Z,20.02
2023-11-23T00:36:59.352Z,20.70
2023-11-23T00:41:47.817Z,21.15
2023-11-23T00:46:35.087Z,20.60
2023-11-23T00:51:24.809Z,20.73
2023-11-23T00:56:12.018Z,20.13
2023-11-23T01:00:59.218Z,19.77
2023-11-23T01:05:46.603Z,22.70
2023-11-23T01:10:36.517Z,21.92
2023-11-23T01:15:23.788Z,22.05
2023-11-23T01:20:11.979Z,21.60
2023-11-23T01:24:59.087Z,20.00
2023-11-23T01:29:49.110Z,19.15
2023-11-23T01:34:36.307Z,19.42
2023-11-23T01:39:23.417Z,18.52
2023-11-23T01:44:10.456Z,16.33
2023-11-23T01:49:02.016Z,16.10
2023-11-23T01:53:49.670Z,15.50
2023-11-23T01:58:37.171Z,15.13
2023-11-23T02:03:24.407Z,15.63
2023-11-23T02:08:14.342Z,15.25
2023-11-23T02:13:01.876Z,15.55
2023-11-23T02:17:59.522Z,16.45
2023-11-23T02:22:46.645Z,16.38
2023-11-23T02:27:36.408Z,14.85
2023-11-23T02:32:23.636Z,15.40
2023-11-23T02:37:10.747Z,15.70
2023-11-23T02:41:58.915Z,17.85
2023-11-23T02:46:49.282Z,14.82
2023-11-23T02:51:36.563Z,14.48
2023-11-23T02:56:23.734Z,13.80
2023-11-23T03:01:11.031Z,13.65
2023-11-23T03:06:02.224Z,12.20
2023-11-23T03:10:49.357Z,10.60
2023-11-23T03:15:36.505Z,12.05
2023-11-23T03:20:23.706Z,10.82
2023-11-23T03:25:13.635Z,10.75
2023-11-23T03:30:00.779Z,9.57
2023-11-23T03:34:48.018Z,8.88
2023-11-23T03:39:35.733Z,8.35
2023-11-23T03:44:25.892Z,9.18
2023-11-23T03:49:13.090Z,8.70
2023-11-23T03:54:00.319Z,7.82
2023-11-23T03:58:47.595Z,8.10
2023-11-23T04:03:40.705Z,7.15
2023-11-23T04:08:27.834Z,6.65
2023-11-23T04:13:15.124Z,6.20
2023-11-23T04:18:02.363Z,7.07
2023-11-23T04:22:52.179Z,6.80
2023-11-23T04:27:39.294Z,5.95
2023-11-23T04:32:26.376Z,5.25
2023-11-23T04:37:13.700Z,5.78
2023-11-23T04:42:03.671Z,4.93
2023-11-23T04:46:52.417Z,5.03
2023-11-23T04:51:39.536Z,5.13
2023-11-23T04:56:26.718Z,6.20
2023-11-23T05:01:16.635Z,5.85
2023-11-23T05:06:04.930Z,7.00
2023-11-23T05:10:52.287Z,6.55
2023-11-23T05:15:39.448Z,8.40
2023-11-23T05:20:29.297Z,8.05
2023-11-23T05:25:16.496Z,10.35
2023-11-23T05:30:04.170Z,11.80
2023-11-23T05:34:51.286Z,9.70
2023-11-23T05:39:43.872Z,10.05
2023-11-23T05:44:31.700Z,11.63
2023-11-23T05:49:19.098Z,9.77
2023-11-23T05:54:06.702Z,9.82
2023-11-23T05:58:56.519Z,8.95
2023-11-23T06:03:43.831Z,8.43
2023-11-23T06:08:31.089Z,8.50
2023-11-23T06:13:18.194Z,8.13
2023-11-23T06:18:13.805Z,8.10
2023-11-23T06:23:01.679Z,8.27
2023-11-23T06:27:52.244Z,11.15
2023-11-23T06:32:49.455Z,9.70
2023-11-23T06:37:39.387Z,9.30
2023-11-23T06:42:26.759Z,9.07
2023-11-23T06:47:14.004Z,7.75
2023-11-23T06:52:01.131Z,8.00
2023-11-23T06:56:51.075Z,8.00
2023-11-23T07:01:38.639Z,8.20
2023-11-23T07:06:28.245Z,7.43
2023-11-23T07:11:17.883Z,9.27
2023-11-23T07:16:08.427Z,10.07
2023-11-23T07:20:55.677Z,10.50
2023-11-23T07:25:43.167Z,12.35
2023-11-23T07:30:30.796Z,12.40
2023-11-23T07:35:20.845Z,14.52
2023-11-23T07:40:10.677Z,13.90
2023-11-23T07:44:58.068Z,14.80
2023-11-23T07:49:45.224Z,14.30
2023-11-23T07:54:35.047Z,14.65
2023-11-23T07:59:22.399Z,16.15
2023-11-23T08:04:09.781Z,18.20
2023-11-23T08:08:56.986Z,16.60
2023-11-23T08:13:46.768Z,16.48
2023-11-23T08:18:40.365Z,17.25
2023-11-23T08:23:34.152Z,16.23
2023-11-23T08:28:21.720Z,15.90
2023-11-23T08:33:11.538Z,16.05
2023-11-23T08:37:58.745Z,16.38
2023-11-23T08:42:45.980Z,13.15
2023-11-23T08:47:33.174Z,12.73
2023-11-23T08:52:23.008Z,12.40
2023-11-23T08:57:10.300Z,11.98
2023-11-23T09:02:05.512Z,11.80
2023-11-23T09:06:56.670Z,12.48
2023-11-23T09:11:46.735Z,9.27
2023-11-23T09:16:34.023Z,9.73
2023-11-23T09:21:37.982Z,9.75
2023-11-23T09:26:25.149Z,11.52
2023-11-23T09:31:18.507Z,10.07
2023-11-23T09:36:06.302Z,11.85
2023-11-23T09:40:58.284Z,9.57
2023-11-23T09:45:45.633Z,9.18
2023-11-23T09:50:39.041Z,8.40
2023-11-23T09:55:31.424Z,6.68
2023-11-23T10:00:31.175Z,5.90
2023-11-23T10:05:30.430Z,4.90
2023-11-23T10:10:32.765Z,3.20
2023-11-23T10:15:20.223Z,2.83
2023-11-23T10:20:17.972Z,3.05
2023-11-23T10:25:07.898Z,3.00
2023-11-23T10:30:04.141Z,3.05
2023-11-23T10:34:58.338Z,2.25
2023-11-23T10:39:50.614Z,2.05
2023-11-23T10:44:38.103Z,2.88
2023-11-23T10:49:28.930Z,1.88
2023-11-23T10:54:16.115Z,1.52
2023-11-23T10:59:07.623Z,2.75
2023-11-23T11:03:55.878Z,2.20
2023-11-23T11:08:49.738Z,1.83
2023-11-23T11:13:41.783Z,2.22
2023-11-23T11:18:30.157Z,2.30
2023-11-23T11:23:17.424Z,1.73
2023-11-23T11:28:09.435Z,1.95
2023-11-23T11:33:07.701Z,2.30
2023-11-23T11:37:55.982Z,1.80
2023-11-23T11:43:03.925Z,1.85
2023-11-23T11:47:59.979Z,1.63
2023-11-23T11:52:47.868Z,1.80
2023-11-23T11:57:41.237Z,3.15
2023-11-23T12:02:28.584Z,2.20
2023-11-23T12:07:18.444Z,2.03
2023-11-23T12:12:06.948Z,2.58
2023-11-23T12:16:54.940Z,2.80
2023-11-23T12:21:42.348Z,3.47
2023-11-23T12:26:33.693Z,3.17
2023-11-23T12:31:21.350Z,3.08
2023-11-23T12:36:10.456Z,3.10
2023-11-23T12:40:58.290Z,2.97
2023-11-23T12:50:52.702Z,3.63
2023-11-23T12:55:42.317Z,3.05
2023-11-23T13:00:33.924Z,3.88
2023-11-23T13:05:39.246Z,3.00
2023-11-23T13:10:31.584Z,3.20
2023-11-23T13:15:30.363Z,3.92
2023-11-23T13:20:59.798Z,2.75
2023-11-23T13:25:50.487Z,3.50
2023-11-23T13:30:46.213Z,2.47
2023-11-23T13:35:38.637Z,3.15
2023-11-23T13:40:36.100Z,3.35
2023-11-23T13:45:25.708Z,4.93
2023-11-23T13:50:13.240Z,3.45
2023-11-23T13:55:05.847Z,3.38
2023-11-23T13:59:58.099Z,2.92
2023-11-23T14:04:46.350Z,3.78
2023-11-23T14:09:33.665Z,3.55
2023-11-23T14:14:20.771Z,3.15
2023-11-23T14:19:23.242Z,4.18
2023-11-23T14:24:10.913Z,4.40
2023-11-23T14:28:58.185Z,4.25
2023-11-23T14:33:45.628Z,4.20
2023-11-23T14:38:35.404Z,2.90
2023-11-23T14:43:22.672Z,4.15
2023-11-23T14:48:10.047Z,4.50
2023-11-23T14:52:57.736Z,3.47
2023-11-23T14:57:49.512Z,3.83
2023-11-23T15:02:39.180Z,4.00
2023-11-23T15:07:28.753Z,5.70
2023-11-23T15:12:16.820Z,3.05
2023-11-23T15:17:06.675Z,2.95
2023-11-23T15:21:53.950Z,3.03
2023-11-23T15:26:41.179Z,3.35
2023-11-23T15:31:28.730Z,4.00
2023-11-23T15:36:18.653Z,5.22
2023-11-23T15:41:06.023Z,3.78
2023-11-23T15:45:53.401Z,3.95
2023-11-23T15:50:40.843Z,4.20
2023-11-23T15:55:30.938Z,3.58
2023-11-23T16:00:18.878Z,3.85
2023-11-23T16:05:06.936Z,3.35
2023-11-23T16:09:54.142Z,3.78
2023-11-23T16:14:45.881Z,3.00
2023-11-23T16:19:33.116Z,4.97
2023-11-23T16:24:32.513Z,3.33
2023-11-23T16:29:19.726Z,4.03
2023-11-23T16:34:09.974Z,4.50
2023-11-23T16:38:57.140Z,4.00
2023-11-23T16:43:44.461Z,5.20
2023-11-23T16:48:31.674Z,4.40
2023-11-23T16:53:21.489Z,4.28
2023-11-23T16:58:08.673Z,4.38
2023-11-23T17:03:05.129Z,4.50
2023-11-23T17:07:55.427Z,4.70
2023-11-23T17:12:45.540Z,5.35
2023-11-23T17:17:32.728Z,3.88
2023-11-23T17:22:19.947Z,4.15
2023-11-23T17:27:11.959Z,4.10
2023-11-23T17:32:02.203Z,4.03
2023-11-23T17:36:49.497Z,5.22
2023-11-23T17:41:36.675Z,4.75
2023-11-23T17:46:24.119Z,3.97
2023-11-23T17:51:14.056Z,5.63
2023-11-23T17:56:01.850Z,4.18
2023-11-23T18:00:49.223Z,4.28
2023-11-23T18:10:43.266Z,3.42
2023-11-23T18:15:30.589Z,4.30
2023-11-23T18:20:17.976Z,5.07
2023-11-23T18:25:05.983Z,4.40
2023-11-23T18:29:56.096Z,8.05
2023-11-23T18:34:43.438Z,7.90
2023-11-23T18:39:31.280Z,6.45
2023-11-23T18:44:18.668Z,5.53
2023-11-23T18:49:10.733Z,3.55
2023-11-23T18:54:00.318Z,6.53
2023-11-23T18:58:48.094Z,5.97
2023-11-23T19:03:41.215Z,5.38
2023-11-23T19:08:31.418Z,5.03
2023-11-23T19:13:19.691Z,4.05
2023-11-23T19:18:08.139Z,4.13
2023-11-23T19:22:56.003Z,2.70
2023-11-23T19:28:01.688Z,3.35
2023-11-23T19:32:49.708Z,2.28
2023-11-23T19:37:37.884Z,2.80
2023-11-23T19:42:28.061Z,3.17
2023-11-23T19:47:19.407Z,3.38
2023-11-23T19:52:13.117Z,2.55
2023-11-23T19:57:00.842Z,2.60
2023-11-23T20:02:01.351Z,2.58
2023-11-23T20:06:53.301Z,2.55
2023-11-23T20:11:45.296Z,2.40
2023-11-23T20:16:34.112Z,3.03
2023-11-23T20:21:21.910Z,5.00
2023-11-23T20:26:12.011Z,3.78
2023-11-23T20:30:59.907Z,2.75
2023-11-23T20:35:47.590Z,3.78
2023-11-23T20:40:36.945Z,2.10
2023-11-23T20:45:27.086Z,2.88
2023-11-23T20:50:14.312Z,2.63
2023-11-23T20:55:02.086Z,2.58
2023-11-23T20:59:50.016Z,4.03
2023-11-23T21:04:51.025Z,2.65
2023-11-23T21:09:38.886Z,2.97
2023-11-23T21:14:26.072Z,2.55
2023-11-23T21:19:13.298Z,3.20
2023-11-23T21:24:04.073Z,2.88
2023-11-23T21:28:51.209Z,2.80
2023-11-23T21:33:38.626Z,4.20
2023-11-23T21:38:25.908Z,3.35
2023-11-23T21:43:15.878Z,5.20
2023-11-23T21:48:06.391Z,3.38
2023-11-23T21:52:55.232Z,4.13
2023-11-23T21:57:42.652Z,4.97
2023-11-23T22:02:32.522Z,4.15
2023-11-23T22:07:19.671Z,4.18
2023-11-23T22:12:07.503Z,3.80
2023-11-23T22:16:56.346Z,4.55
2023-11-23T22:21:46.934Z,5.13
2023-11-23T22:26:36.100Z,4.25
2023-11-23T22:31:24.347Z,6.43
2023-11-23T22:36:12.958Z,5.03
2023-11-23T22:41:03.718Z,5.20
2023-11-23T22:45:53.147Z,4.80
2023-11-23T22:50:40.459Z,5.38
2023-11-23T22:55:27.685Z,4.28
2023-11-23T23:00:18.242Z,7.97
2023-11-23T23:05:06.663Z,5.50
2023-11-23T23:09:53.865Z,4.13
2023-11-23T23:14:41.334Z,5.03
2023-11-23T23:19:31.063Z,4.43
2023-11-23T23:24:18.338Z,3.83
2023-11-23T23:29:05.599Z,4.35
2023-11-23T23:33:52.826Z,4.93
2023-11-23T23:38:42.622Z,4.35
2023-11-23T23:43:29.746Z,4.57
2023-11-23T23:48:16.874Z,4.75
2023-11-23T23:53:03.936Z,4.28
2023-11-23T23:57:53.662Z,4.75
